Bartow, Florida
Current Conditions -  °F | °C
As of 1:47 PM on Saturday 25 Oct 2014 (Local Time) from KBOW Reporting Station
Clear Clear  
Wind Chill: 75°   Ceiling: Unl
Heat Index: 75°   Visibility: 10mi
Dew Point: 54°   Wind: 7mph
Humidity: 47%   Direction: 10°N
Pressure: 29.97"   Gusts: NA
Location:  27.9°N, 81.84°W
Report Text: KBOW 251747Z 01006KT 10SM SKC 24/12 A2997
Loading
Personal Weather Stations






























Interactive Weather Map
Tropical Storm Tracking
New forecast layout! Learn more

10-Day Weather Forecast

Advertisements
Track Severe Weather on mobile